Airport ID:KEDC
Update Time (UTC):05 AUG 20 02:37
Wind Speed (Knots):3
Wind Direction (Magnetic):180
Temperature (°C):30
Dew Point (°C):18
Humidity (%):48
Altimeter (inHg):29.97
Density Altitude (Feet):2500
Visibility (Miles):10
Clouds (Hundreds of feet):CLR
Present Weather:NO PRECIPITATION
METAR:METAR KEDC 050235Z AUTO 18003KT 10SM CLR 30/18 A2997 RMK AO2

The data displayed is for advisory purposes only and is not to be used for flight planning or operations.